Time;durP1;ratioP1;P1;durP2;ratioP2;P2;SDS_P1;SDS_P2;PMS_P1;PMS_P2;Temp;Humidity;BMP_temperature;BMP_pressure;BME280_temperature;BME280_humidity;BME280_pressure;Samples;Min_cycle;Max_cycle;Signal;HPM_P1;HPM_P2
2022/03/08 00:01:09;;;;;;;14.40;9.23;;;-1.00;99.90;;;;;;5070022;28;20527;-62
2022/03/08 00:03:41;;;;;;;10.83;8.70;;;-1.00;99.90;;;;;;5068685;28;20493;-60
2022/03/08 00:06:11;;;;;;;10.70;7.83;;;-1.10;99.90;;;;;;5069649;28;20466;-60
2022/03/08 00:08:38;;;;;;;9.13;7.50;;;-1.00;99.90;;;;;;5078586;28;20468;-60
2022/03/08 00:11:05;;;;;;;8.37;7.07;;;-1.00;99.90;;;;;;5075571;28;20496;-62
2022/03/08 00:13:39;;;;;;;10.87;8.20;;;-0.90;99.90;;;;;;5077368;28;20579;-62
2022/03/08 00:16:09;;;;;;;11.63;8.57;;;-0.90;99.90;;;;;;5079027;28;20497;-62
2022/03/08 00:18:48;;;;;;;10.73;7.50;;;-0.90;99.90;;;;;;5079574;28;20476;-60
2022/03/08 00:21:18;;;;;;;9.10;7.43;;;-0.70;99.90;;;;;;5074588;28;20489;-62
2022/03/08 00:23:48;;;;;;;8.20;7.30;;;-0.60;99.90;;;;;;5073235;28;20504;-62
2022/03/08 00:26:21;;;;;;;8.57;7.67;;;-0.50;99.90;;;;;;5058836;28;20531;-62
2022/03/08 00:28:51;;;;;;;8.37;7.20;;;-0.40;99.90;;;;;;5064756;28;20901;-62
2022/03/08 00:31:21;;;;;;;7.23;6.40;;;-0.40;99.90;;;;;;5059001;28;20520;-61
2022/03/08 00:33:48;;;;;;;7.57;6.10;;;-0.40;99.90;;;;;;5073341;28;20530;-61
2022/03/08 00:36:20;;;;;;;7.63;6.63;;;-0.50;99.90;;;;;;5078292;28;20521;-61
2022/03/08 00:38:47;;;;;;;7.93;6.97;;;-0.50;99.90;;;;;;5078648;28;21020;-62
2022/03/08 00:41:14;;;;;;;8.00;6.50;;;-0.40;99.90;;;;;;5078619;28;20458;-61
2022/03/08 00:43:41;;;;;;;8.47;7.53;;;-0.40;99.90;;;;;;5078387;28;20968;-62
2022/03/08 00:46:15;;;;;;;9.10;6.70;;;-0.30;99.90;;;;;;5079099;28;20518;-63
2022/03/08 00:48:46;;;;;;;7.70;6.77;;;0.00;99.90;;;;;;5078367;28;20924;-61
2022/03/08 00:51:16;;;;;;;8.10;6.80;;;0.10;99.90;;;;;;5079456;28;20472;-59
2022/03/08 00:53:45;;;;;;;8.27;6.87;;;0.20;99.90;;;;;;5078430;28;20462;-62
2022/03/08 00:56:14;;;;;;;10.13;6.83;;;0.10;99.90;;;;;;5078850;28;20462;-62
2022/03/08 00:58:42;;;;;;;7.00;6.30;;;0.10;99.90;;;;;;5072012;28;20470;-60
2022/03/08 01:01:14;;;;;;;8.13;6.03;;;0.10;99.90;;;;;;5078059;28;20824;-59
2022/03/08 01:03:41;;;;;;;6.53;5.93;;;0.10;99.90;;;;;;5077648;28;20497;-60
2022/03/08 01:06:08;;;;;;;7.30;6.60;;;0.10;99.90;;;;;;5078642;28;20463;-62
2022/03/08 01:08:41;;;;;;;7.13;5.53;;;0.20;99.90;;;;;;5078509;28;20789;-62
2022/03/08 01:11:11;;;;;;;6.03;5.53;;;0.20;99.90;;;;;;5077068;28;20466;-62
2022/03/08 01:13:44;;;;;;;9.20;6.20;;;0.20;99.90;;;;;;5077707;28;20516;-62
2022/03/08 01:16:14;;;;;;;7.90;6.37;;;0.10;99.90;;;;;;5076858;28;20465;-62
2022/03/08 01:18:41;;;;;;;6.50;5.93;;;0.10;99.90;;;;;;5076839;28;20469;-62
2022/03/08 01:21:14;;;;;;;9.37;6.83;;;0.20;99.90;;;;;;5079164;28;20580;-63
2022/03/08 01:23:41;;;;;;;8.77;6.60;;;0.50;99.90;;;;;;5078043;28;20517;-62
2022/03/08 01:26:10;;;;;;;7.93;6.83;;;0.50;99.90;;;;;;5077540;28;20520;-63
2022/03/08 01:28:40;;;;;;;7.17;6.47;;;0.50;99.90;;;;;;5073551;28;20472;-62
2022/03/08 01:31:08;;;;;;;7.20;6.40;;;0.60;99.90;;;;;;5068122;28;20904;-63
2022/03/08 01:33:39;;;;;;;7.20;6.47;;;0.70;99.90;;;;;;5071427;28;20467;-63
2022/03/08 01:36:07;;;;;;;7.30;6.57;;;0.70;99.90;;;;;;5080081;28;20964;-62
2022/03/08 01:38:34;;;;;;;8.50;6.87;;;0.70;99.90;;;;;;5080408;28;20458;-63
2022/03/08 01:41:01;;;;;;;9.80;7.60;;;0.70;99.90;;;;;;5077636;28;20816;-62
2022/03/08 01:43:32;;;;;;;6.60;5.90;;;0.70;99.90;;;;;;5077555;28;20935;-62
2022/03/08 01:45:59;;;;;;;7.87;6.77;;;0.70;99.90;;;;;;5077021;28;20480;-62
2022/03/08 01:48:30;;;;;;;7.23;6.53;;;0.60;99.90;;;;;;5077087;28;20787;-62
2022/03/08 01:51:00;;;;;;;8.27;7.33;;;0.70;99.90;;;;;;5077343;28;21044;-62
2022/03/08 01:53:32;;;;;;;8.93;7.03;;;0.70;99.90;;;;;;5077562;28;20458;-62
2022/03/08 01:56:02;;;;;;;8.80;6.33;;;0.70;99.90;;;;;;5077747;28;20872;-62
2022/03/08 01:58:29;;;;;;;7.77;7.07;;;0.80;99.90;;;;;;5077454;28;20477;-62
2022/03/08 02:00:57;;;;;;;7.90;6.83;;;0.70;99.90;;;;;;5066550;28;20469;-61
2022/03/08 02:03:32;;;;;;;8.07;7.30;;;0.70;99.90;;;;;;5075385;28;20500;-62
2022/03/08 02:06:02;;;;;;;8.70;7.43;;;0.70;99.90;;;;;;5076967;28;20486;-62
2022/03/08 02:08:32;;;;;;;8.80;7.80;;;0.70;99.90;;;;;;5060154;28;20874;-62
2022/03/08 02:11:05;;;;;;;12.13;9.37;;;0.70;99.90;;;;;;5077416;28;20462;-62
2022/03/08 02:13:32;;;;;;;10.60;8.50;;;0.80;99.90;;;;;;5071825;28;20455;-63
2022/03/08 02:16:04;;;;;;;10.27;8.37;;;0.80;99.90;;;;;;5077041;28;20464;-62
2022/03/08 02:18:31;;;;;;;9.00;8.10;;;0.80;99.90;;;;;;5057258;28;20814;-63
2022/03/08 02:21:04;;;;;;;9.93;8.93;;;0.70;99.90;;;;;;5087851;28;20482;-61
2022/03/08 02:23:33;;;;;;;9.33;7.53;;;0.70;99.90;;;;;;5086292;28;20536;-63
2022/03/08 02:26:03;;;;;;;8.07;6.90;;;0.80;99.90;;;;;;5077395;28;20994;-61
2022/03/08 02:28:32;;;;;;;9.83;7.10;;;0.80;99.90;;;;;;5075714;28;20963;-63
2022/03/08 02:31:02;;;;;;;9.10;7.63;;;0.80;99.90;;;;;;5064628;28;20464;-63
2022/03/08 02:33:38;;;;;;;8.93;8.03;;;1.00;99.90;;;;;;5062345;28;20472;-63
2022/03/08 02:36:09;;;;;;;8.03;7.17;;;0.90;99.90;;;;;;5077474;28;21024;-63
2022/03/08 02:38:39;;;;;;;9.73;8.10;;;0.90;99.90;;;;;;5076765;28;20437;-63
2022/03/08 02:41:09;;;;;;;8.53;7.63;;;0.90;99.90;;;;;;5077058;28;20465;-63
2022/03/08 02:43:36;;;;;;;10.67;7.90;;;1.00;99.90;;;;;;5075724;28;20507;-62
2022/03/08 02:46:03;;;;;;;9.10;7.83;;;1.00;99.90;;;;;;5076647;28;20527;-63
2022/03/08 02:48:31;;;;;;;9.98;8.65;;;1.00;99.90;;;;;;5075679;28;20454;-62
2022/03/08 02:51:14;;;;;;;9.00;8.10;;;1.10;99.90;;;;;;5076649;28;20303;-62
2022/03/08 02:53:46;;;;;;;9.43;7.10;;;1.00;99.90;;;;;;5072078;28;20465;-63
2022/03/08 02:56:15;;;;;;;8.10;7.30;;;1.00;99.90;;;;;;5071106;28;20915;-63
2022/03/08 02:58:45;;;;;;;8.00;6.97;;;1.10;99.90;;;;;;5078401;28;20520;-63
2022/03/08 03:01:15;;;;;;;8.47;7.67;;;1.20;99.90;;;;;;5073563;28;20921;-61
2022/03/08 03:03:48;;;;;;;11.30;7.67;;;1.20;99.90;;;;;;5081144;28;20794;-63
2022/03/08 03:06:15;;;;;;;8.87;7.77;;;1.20;99.90;;;;;;5071077;28;20462;-63
2022/03/08 03:08:47;;;;;;;8.87;7.30;;;1.20;99.90;;;;;;5062555;28;20467;-60
2022/03/08 03:11:17;;;;;;;7.60;6.90;;;1.20;99.90;;;;;;5081010;28;20479;-62
2022/03/08 03:13:45;;;;;;;7.30;6.60;;;1.20;99.90;;;;;;5080780;28;20811;-62
2022/03/08 03:16:21;;;;;;;9.10;7.70;;;1.10;99.90;;;;;;5079961;28;20514;-61
2022/03/08 03:18:54;;;;;;;8.20;7.37;;;1.00;99.90;;;;;;5080216;28;20469;-62
2022/03/08 03:21:24;;;;;;;7.97;7.17;;;1.00;99.90;;;;;;5098687;28;20477;-62
2022/03/08 03:23:57;;;;;;;8.50;7.20;;;1.00;99.90;;;;;;5100680;28;20542;-63
2022/03/08 03:26:30;;;;;;;9.60;7.80;;;1.00;99.90;;;;;;5089431;28;20463;-63
2022/03/08 03:28:57;;;;;;;9.50;7.50;;;1.20;99.90;;;;;;5080612;28;20463;-61
2022/03/08 03:31:24;;;;;;;7.70;7.00;;;1.20;99.90;;;;;;5079134;28;20465;-63
2022/03/08 03:33:51;;;;;;;8.80;6.87;;;1.10;99.90;;;;;;5081449;28;20551;-63
2022/03/08 03:36:18;;;;;;;9.00;7.83;;;1.10;99.90;;;;;;5083517;28;20466;-63
2022/03/08 03:38:48;;;;;;;8.00;7.20;;;1.10;99.90;;;;;;5082861;28;20830;-62
2022/03/08 03:41:22;;;;;;;8.20;7.30;;;1.10;99.90;;;;;;5070305;28;20469;-62
2022/03/08 03:43:49;;;;;;;9.00;7.40;;;1.00;99.90;;;;;;5063493;28;20540;-62
2022/03/08 03:46:16;;;;;;;7.70;6.93;;;1.00;99.90;;;;;;5064346;28;20561;-63
2022/03/08 03:48:44;;;;;;;7.77;6.43;;;1.00;99.90;;;;;;5082626;28;20548;-63
2022/03/08 03:51:14;;;;;;;9.27;6.70;;;1.10;99.90;;;;;;5082873;28;20472;-63
2022/03/08 03:53:41;;;;;;;7.80;7.00;;;1.10;99.90;;;;;;5081020;28;20466;-63
2022/03/08 03:56:08;;;;;;;9.93;7.30;;;1.10;99.90;;;;;;5076060;28;20462;-63
2022/03/08 03:58:37;;;;;;;7.53;6.70;;;1.00;99.90;;;;;;5081023;28;20525;-62
2022/03/08 04:01:04;;;;;;;7.67;6.97;;;1.10;99.90;;;;;;5082299;28;20524;-62
2022/03/08 04:03:32;;;;;;;8.73;6.57;;;1.10;99.90;;;;;;5082767;28;20489;-62
2022/03/08 04:06:02;;;;;;;7.00;6.30;;;1.10;99.90;;;;;;5082526;28;20451;-63
2022/03/08 04:08:38;;;;;;;7.73;7.03;;;1.10;99.90;;;;;;5068062;28;20474;-62
2022/03/08 04:11:12;;;;;;;9.83;6.60;;;1.10;99.90;;;;;;5062239;28;20824;-63
2022/03/08 04:13:41;;;;;;;8.40;7.13;;;1.10;99.90;;;;;;5078487;28;20455;-62
2022/03/08 04:16:08;;;;;;;8.87;7.27;;;1.10;99.90;;;;;;5082472;28;20483;-62
2022/03/08 04:18:35;;;;;;;10.73;7.63;;;1.10;99.90;;;;;;5082235;28;20462;-62
2022/03/08 04:21:04;;;;;;;7.77;7.00;;;1.10;99.90;;;;;;5081962;28;20482;-63
2022/03/08 04:23:31;;;;;;;8.70;7.40;;;1.00;99.90;;;;;;5082525;28;20965;-62
2022/03/08 04:26:00;;;;;;;7.97;6.90;;;0.90;99.90;;;;;;5082649;28;20461;-62
2022/03/08 04:28:30;;;;;;;8.10;6.90;;;1.00;99.90;;;;;;5082270;28;20437;-62
2022/03/08 04:31:08;;;;;;;7.60;6.80;;;0.90;99.90;;;;;;5082152;28;20462;-63
2022/03/08 04:33:38;;;;;;;7.23;6.57;;;0.90;99.90;;;;;;5082000;28;20465;-63
2022/03/08 04:36:14;;;;;;;8.03;7.23;;;1.00;99.90;;;;;;5082609;28;20467;-62
2022/03/08 04:38:42;;;;;;;8.90;7.63;;;1.00;99.90;;;;;;5078730;28;20467;-62
2022/03/08 04:41:10;;;;;;;8.07;6.83;;;1.10;99.90;;;;;;5072859;28;20910;-63
2022/03/08 04:43:40;;;;;;;7.97;7.17;;;1.10;99.90;;;;;;5082098;28;20539;-62
2022/03/08 04:46:11;;;;;;;7.80;6.70;;;1.10;99.90;;;;;;5060894;28;20450;-62
2022/03/08 04:48:38;;;;;;;9.10;7.63;;;1.10;99.90;;;;;;5062346;28;20789;-62
2022/03/08 04:51:10;;;;;;;7.60;6.43;;;1.10;99.90;;;;;;5077838;28;20462;-63
2022/03/08 04:53:46;;;;;;;7.30;6.60;;;1.00;99.90;;;;;;5078380;28;20949;-62
2022/03/08 04:56:19;;;;;;;7.17;6.47;;;1.00;99.90;;;;;;5075061;28;20484;-63
2022/03/08 04:58:49;;;;;;;8.80;7.27;;;1.00;99.90;;;;;;5078605;28;20507;-63
2022/03/08 05:01:18;;;;;;;8.30;6.97;;;1.00;99.90;;;;;;5077058;28;20446;-61
2022/03/08 05:03:49;;;;;;;7.70;6.90;;;1.00;99.90;;;;;;5076955;28;20485;-62
2022/03/08 05:06:18;;;;;;;10.10;7.43;;;0.90;99.90;;;;;;5077717;28;20498;-62
2022/03/08 05:08:48;;;;;;;10.10;7.10;;;0.90;99.90;;;;;;5077625;28;20759;-63
2022/03/08 05:11:18;;;;;;;8.30;6.70;;;1.00;99.90;;;;;;5075457;28;20469;-62
2022/03/08 05:13:47;;;;;;;16.10;6.57;;;1.00;99.90;;;;;;5073995;28;20901;-63
2022/03/08 05:16:15;;;;;;;8.93;6.30;;;0.90;99.90;;;;;;5076762;28;20458;-63
2022/03/08 05:18:45;;;;;;;7.63;6.73;;;0.90;99.90;;;;;;5077156;28;20467;-63
2022/03/08 05:21:12;;;;;;;8.27;6.83;;;1.00;99.90;;;;;;5075174;28;20560;-63
2022/03/08 05:23:40;;;;;;;8.13;6.60;;;1.00;99.90;;;;;;5076808;28;20554;-63
2022/03/08 05:26:09;;;;;;;8.47;7.30;;;1.00;99.90;;;;;;5074631;28;20455;-62
2022/03/08 05:28:42;;;;;;;7.50;6.77;;;1.00;99.90;;;;;;5076764;28;20899;-63
2022/03/08 05:31:09;;;;;;;8.23;6.10;;;1.10;99.90;;;;;;5073350;28;20777;-63
2022/03/08 05:33:39;;;;;;;7.03;6.33;;;1.10;99.90;;;;;;5069200;28;20469;-62
2022/03/08 05:36:08;;;;;;;7.27;6.33;;;1.00;99.90;;;;;;5075643;28;20458;-61
2022/03/08 05:38:38;;;;;;;7.47;6.70;;;0.90;99.90;;;;;;5076527;28;20504;-60
2022/03/08 05:41:10;;;;;;;10.57;7.47;;;0.90;99.90;;;;;;5072593;28;20466;-62
2022/03/08 05:43:42;;;;;;;6.80;6.10;;;0.80;99.90;;;;;;5075782;28;20552;-62
2022/03/08 05:46:14;;;;;;;9.23;7.10;;;0.90;99.90;;;;;;5072361;28;20473;-61
2022/03/08 05:48:45;;;;;;;7.73;7.03;;;0.80;99.90;;;;;;5074250;28;20462;-62
2022/03/08 05:51:18;;;;;;;6.73;6.13;;;0.90;99.90;;;;;;5075776;28;20465;-60
2022/03/08 05:53:48;;;;;;;7.33;6.10;;;1.00;99.90;;;;;;5076166;28;20940;-62
2022/03/08 05:56:15;;;;;;;8.20;6.63;;;0.90;99.90;;;;;;5069007;28;20471;-62
2022/03/08 05:58:44;;;;;;;8.17;6.83;;;1.00;99.90;;;;;;5075122;28;20467;-63
2022/03/08 06:01:11;;;;;;;8.47;6.60;;;1.00;99.90;;;;;;5073918;28;20516;-63
2022/03/08 06:03:38;;;;;;;8.37;6.57;;;1.00;99.90;;;;;;5072271;28;20476;-62
2022/03/08 06:06:05;;;;;;;7.50;6.40;;;1.00;99.90;;;;;;5073110;28;20947;-62
2022/03/08 06:08:34;;;;;;;9.27;6.43;;;0.90;99.90;;;;;;5075328;28;20465;-62
2022/03/08 06:11:01;;;;;;;7.73;6.90;;;1.00;99.90;;;;;;5071012;28;20889;-62
2022/03/08 06:13:28;;;;;;;8.97;7.23;;;1.00;99.90;;;;;;5070462;28;20810;-63
2022/03/08 06:15:56;;;;;;;9.57;6.70;;;1.00;99.90;;;;;;5075810;28;20457;-62
2022/03/08 06:18:23;;;;;;;9.50;7.23;;;1.10;99.90;;;;;;5076010;28;20467;-62
2022/03/08 06:20:50;;;;;;;10.00;6.77;;;1.10;99.90;;;;;;5076348;28;21188;-63
2022/03/08 06:23:20;;;;;;;8.37;7.17;;;1.20;99.90;;;;;;5072434;28;20459;-62
2022/03/08 06:25:51;;;;;;;8.50;6.80;;;1.10;99.90;;;;;;5075713;28;20585;-63
2022/03/08 06:28:19;;;;;;;7.73;7.00;;;1.20;99.90;;;;;;5076530;28;20466;-63
2022/03/08 06:30:48;;;;;;;7.60;6.80;;;1.20;99.90;;;;;;5068065;28;20505;-63
2022/03/08 06:33:17;;;;;;;9.20;6.53;;;1.30;99.90;;;;;;5064618;28;20472;-63
2022/03/08 06:35:44;;;;;;;8.47;7.00;;;1.30;99.90;;;;;;5071779;28;20469;-62
2022/03/08 06:38:15;;;;;;;8.37;7.10;;;1.30;99.90;;;;;;5067774;28;20465;-61
2022/03/08 06:40:42;;;;;;;9.03;7.67;;;1.40;99.90;;;;;;5051785;28;20978;-59
2022/03/08 06:43:16;;;;;;;7.23;6.53;;;1.50;99.90;;;;;;5053112;28;20494;-58
2022/03/08 06:45:47;;;;;;;10.17;8.07;;;1.50;99.90;;;;;;5064366;28;20484;-61
2022/03/08 06:48:17;;;;;;;8.13;6.80;;;1.60;99.90;;;;;;5071630;28;20493;-59
2022/03/08 06:50:47;;;;;;;8.33;7.43;;;1.70;99.90;;;;;;5076353;28;20782;-60
2022/03/08 06:53:14;;;;;;;14.00;7.20;;;1.70;99.90;;;;;;5076563;28;20470;-61
2022/03/08 06:55:45;;;;;;;8.40;7.20;;;1.80;99.90;;;;;;5075218;28;20453;-61
2022/03/08 06:58:18;;;;;;;8.93;7.83;;;1.80;99.90;;;;;;5066040;28;20852;-58
2022/03/08 07:00:50;;;;;;;9.00;6.37;;;1.90;99.90;;;;;;5070297;28;20464;-60
2022/03/08 07:03:26;;;;;;;8.03;7.23;;;2.00;99.90;;;;;;5067074;28;20468;-61
2022/03/08 07:05:53;;;;;;;7.40;6.47;;;2.10;99.90;;;;;;5074593;28;20782;-61
2022/03/08 07:08:27;;;;;;;8.80;7.20;;;2.20;99.90;;;;;;5076753;28;20538;-58
2022/03/08 07:10:59;;;;;;;7.37;6.60;;;2.40;99.90;;;;;;5076770;28;20476;-58
2022/03/08 07:13:31;;;;;;;9.33;6.53;;;2.50;99.90;;;;;;5056840;28;20822;-59
2022/03/08 07:16:01;;;;;;;10.33;7.80;;;2.70;99.90;;;;;;5059017;28;20460;-60
2022/03/08 07:18:33;;;;;;;8.00;7.20;;;3.00;99.90;;;;;;5075973;28;20525;-58
2022/03/08 07:21:02;;;;;;;8.50;6.80;;;3.10;99.90;;;;;;5083050;28;20527;-56
2022/03/08 07:23:29;;;;;;;11.20;9.10;;;3.30;99.90;;;;;;5076183;28;20461;-58
2022/03/08 07:26:00;;;;;;;8.60;7.70;;;3.50;99.90;;;;;;5076535;28;20768;-55
2022/03/08 07:28:39;;;;;;;8.30;7.50;;;3.70;99.90;;;;;;5076139;28;20547;-60
2022/03/08 07:31:06;;;;;;;9.30;7.23;;;4.00;99.90;;;;;;5076083;28;20523;-57
2022/03/08 07:33:33;;;;;;;8.83;7.37;;;4.00;99.90;;;;;;5076542;28;20518;-57
2022/03/08 07:36:03;;;;;;;8.20;7.40;;;4.30;99.90;;;;;;5076594;28;20461;-56
2022/03/08 07:38:33;;;;;;;8.80;7.87;;;4.40;99.90;;;;;;5075974;28;20901;-55
2022/03/08 07:41:04;;;;;;;8.33;7.47;;;4.50;99.90;;;;;;5076446;28;20461;-55
2022/03/08 07:43:39;;;;;;;8.47;6.23;;;4.70;99.90;;;;;;5076384;28;20461;-56
2022/03/08 07:46:09;;;;;;;8.37;7.57;;;4.90;99.90;;;;;;5080137;28;20492;-61
2022/03/08 07:48:41;;;;;;;7.93;7.13;;;5.10;99.90;;;;;;5079498;28;20468;-60
2022/03/08 07:51:08;;;;;;;7.93;7.23;;;5.40;99.90;;;;;;5079688;28;20465;-57
2022/03/08 07:53:35;;;;;;;8.27;7.47;;;5.60;99.90;;;;;;5076791;28;20519;-57
2022/03/08 07:56:09;;;;;;;6.90;6.20;;;5.90;99.90;;;;;;5079024;28;20960;-60
2022/03/08 07:58:41;;;;;;;7.10;6.37;;;5.90;99.90;;;;;;5069907;28;20466;-55
2022/03/08 08:01:10;;;;;;;9.07;7.10;;;6.00;99.90;;;;;;5064355;28;20462;-59
2022/03/08 08:03:42;;;;;;;7.87;6.93;;;6.00;99.90;;;;;;5078865;28;20987;-61
2022/03/08 08:06:12;;;;;;;10.60;7.40;;;6.00;99.90;;;;;;5077968;28;20489;-61
2022/03/08 08:08:39;;;;;;;8.17;7.10;;;6.20;99.90;;;;;;5078838;28;20887;-61
2022/03/08 08:11:08;;;;;;;8.30;7.50;;;6.40;99.90;;;;;;5070557;28;20501;-61
2022/03/08 08:13:39;;;;;;;7.10;6.50;;;6.20;99.90;;;;;;5076622;28;20461;-61
2022/03/08 08:16:14;;;;;;;7.67;6.93;;;6.30;99.90;;;;;;5079840;28;20952;-61
2022/03/08 08:18:44;;;;;;;8.27;6.80;;;6.50;99.90;;;;;;5073037;28;20912;-59
2022/03/08 08:21:15;;;;;;;8.87;8.00;;;6.60;99.90;;;;;;5086931;28;20498;-60
2022/03/08 08:23:44;;;;;;;8.30;6.67;;;6.80;99.90;;;;;;5074626;28;20825;-61
2022/03/08 08:26:16;;;;;;;7.93;7.20;;;7.00;99.90;;;;;;5076281;28;20501;-57
2022/03/08 08:28:50;;;;;;;8.27;7.47;;;7.00;99.90;;;;;;5063656;28;20513;-61
2022/03/08 08:31:18;;;;;;;7.83;7.13;;;7.20;99.90;;;;;;5074862;28;20465;-60
2022/03/08 08:33:45;;;;;;;7.87;6.47;;;7.40;99.90;;;;;;5076725;28;20462;-60
2022/03/08 08:36:22;;;;;;;7.80;6.23;;;7.60;99.90;;;;;;5077478;28;20457;-59
2022/03/08 08:38:54;;;;;;;7.40;6.60;;;7.70;99.90;;;;;;5076708;28;20432;-60
2022/03/08 08:41:25;;;;;;;8.53;6.47;;;7.50;99.90;;;;;;5078057;28;20511;-61
2022/03/08 08:43:52;;;;;;;7.67;6.70;;;7.50;99.90;;;;;;5078772;28;20489;-60
2022/03/08 08:46:20;;;;;;;7.73;7.03;;;7.70;99.90;;;;;;5078661;28;20492;-60
2022/03/08 08:49:03;;;;;;;6.80;6.20;;;7.70;99.90;;;;;;5078692;28;20864;-60
2022/03/08 08:51:30;;;;;;;7.77;6.97;;;7.70;99.90;;;;;;5059001;28;20462;-61
2022/03/08 08:54:01;;;;;;;8.23;6.90;;;7.70;99.90;;;;;;5075792;28;20511;-61
2022/03/08 08:56:35;;;;;;;7.03;6.33;;;7.90;99.90;;;;;;5078640;28;20759;-60
2022/03/08 08:59:08;;;;;;;7.90;7.20;;;8.10;99.90;;;;;;5078597;28;20465;-59
2022/03/08 09:01:37;;;;;;;7.13;6.47;;;7.90;99.90;;;;;;5078067;28;20519;-61
2022/03/08 09:04:10;;;;;;;7.83;7.00;;;7.70;99.90;;;;;;5078525;28;20894;-60
2022/03/08 09:06:40;;;;;;;6.63;6.03;;;7.90;99.90;;;;;;5079468;28;20489;-59
2022/03/08 09:09:07;;;;;;;11.30;6.73;;;8.10;99.90;;;;;;5078578;28;20971;-59
2022/03/08 09:11:39;;;;;;;6.50;5.90;;;8.20;99.90;;;;;;5077003;28;20469;-60
2022/03/08 09:14:17;;;;;;;7.93;6.60;;;8.20;99.90;;;;;;5078148;28;20461;-61
2022/03/08 09:16:45;;;;;;;8.67;6.90;;;8.30;99.90;;;;;;5078664;28;20453;-59
2022/03/08 09:19:18;;;;;;;8.40;7.60;;;8.40;99.90;;;;;;5076839;28;20515;-59
2022/03/08 09:21:47;;;;;;;7.37;6.47;;;8.60;99.90;;;;;;5073589;28;20551;-59
2022/03/08 09:24:14;;;;;;;7.10;6.40;;;9.00;99.90;;;;;;5078382;28;20568;-58
2022/03/08 09:26:49;;;;;;;8.90;6.40;;;8.80;99.90;;;;;;5077830;28;20771;-58
2022/03/08 09:29:23;;;;;;;7.30;6.70;;;8.80;99.90;;;;;;5077704;28;20457;-61
2022/03/08 09:31:52;;;;;;;6.83;6.20;;;8.90;99.90;;;;;;5077517;28;20950;-58
2022/03/08 09:34:19;;;;;;;7.53;6.83;;;9.00;99.90;;;;;;5077903;28;20522;-54
2022/03/08 09:36:46;;;;;;;7.57;6.87;;;9.20;99.90;;;;;;5077390;28;20550;-58
2022/03/08 09:39:19;;;;;;;6.83;6.13;;;9.10;99.90;;;;;;5077218;28;20461;-56
2022/03/08 09:41:51;;;;;;;7.47;6.33;;;9.20;99.90;;;;;;5076647;28;20571;-57
2022/03/08 09:44:27;;;;;;;9.00;6.20;;;9.00;99.90;;;;;;5077412;28;20890;-61
2022/03/08 09:47:02;;;;;;;7.30;6.60;;;8.70;99.90;;;;;;5077189;28;20461;-56
2022/03/08 09:49:44;;;;;;;6.97;6.37;;;9.10;99.90;;;;;;5077483;28;20514;-60
2022/03/08 09:52:14;;;;;;;10.73;6.00;;;9.20;99.90;;;;;;5077281;28;20624;-59
2022/03/08 09:54:43;;;;;;;7.83;6.60;;;8.70;99.90;;;;;;5077628;28;20493;-58
2022/03/08 09:57:11;;;;;;;6.70;5.97;;;8.60;99.90;;;;;;5077061;28;20464;-62
2022/03/08 09:59:38;;;;;;;7.87;7.07;;;8.60;99.90;;;;;;5077064;28;20457;-61
2022/03/08 10:02:14;;;;;;;8.30;6.30;;;8.80;99.90;;;;;;5077794;28;20795;-61
2022/03/08 10:04:44;;;;;;;6.50;6.00;;;8.70;99.90;;;;;;5076616;28;20457;-61
2022/03/08 10:07:14;;;;;;;6.73;6.03;;;8.90;99.90;;;;;;5076896;28;20922;-61
2022/03/08 10:09:56;;;;;;;8.50;7.13;;;9.10;99.90;;;;;;5077159;28;20461;-57
2022/03/08 10:12:23;;;;;;;6.70;5.83;;;9.40;99.90;;;;;;5075842;28;20465;-60
2022/03/08 10:14:51;;;;;;;8.00;6.30;;;9.50;99.90;;;;;;5076764;28;20967;-61
2022/03/08 10:20:18;;;;;;;8.00;6.67;;;9.70;99.90;;;;;;5096102;27;1391391;-57
2022/03/08 10:22:45;;;;;;;6.90;6.20;;;10.50;99.90;;;;;;5122569;28;20237;-60
2022/03/08 10:25:24;;;;;;;9.03;7.27;;;10.70;99.90;;;;;;5127576;28;20467;-60
2022/03/08 10:28:04;;;;;;;7.77;6.97;;;10.70;99.90;;;;;;5134894;28;20847;-57
2022/03/08 10:30:48;;;;;;;7.03;6.43;;;10.80;99.90;;;;;;5125536;28;20953;-57
2022/03/08 10:33:20;;;;;;;7.37;6.67;;;10.30;99.90;;;;;;5134058;28;20519;-59
2022/03/08 10:35:55;;;;;;;8.50;6.37;;;10.20;99.90;;;;;;5115281;28;20786;-60
2022/03/08 10:38:25;;;;;;;8.57;6.20;;;10.50;99.90;;;;;;5133839;28;20850;-58
2022/03/08 10:41:00;;;;;;;6.80;6.20;;;10.30;99.90;;;;;;5135067;28;20466;-59
2022/03/08 10:43:29;;;;;;;6.30;5.70;;;10.10;99.90;;;;;;5134779;28;20891;-59
2022/03/08 10:45:56;;;;;;;6.33;5.73;;;10.60;99.90;;;;;;5133736;28;20504;-60
2022/03/08 10:48:35;;;;;;;6.67;6.07;;;10.70;99.90;;;;;;5134790;28;20500;-60
2022/03/08 10:51:17;;;;;;;9.00;6.13;;;10.70;99.90;;;;;;5119378;28;20465;-60
2022/03/08 10:53:47;;;;;;;7.50;6.87;;;10.90;99.90;;;;;;5135139;28;20451;-60
2022/03/08 10:56:24;;;;;;;6.73;6.07;;;10.90;99.90;;;;;;5134157;28;20485;-60
2022/03/08 10:58:53;;;;;;;8.53;6.53;;;11.10;99.90;;;;;;5135062;28;20486;-57
2022/03/08 11:01:22;;;;;;;8.90;6.90;;;11.20;99.90;;;;;;5131608;28;20471;-60
2022/03/08 11:04:05;;;;;;;6.37;5.60;;;11.30;99.90;;;;;;5129544;28;20466;-60
2022/03/08 11:06:38;;;;;;;11.40;6.20;;;11.20;99.90;;;;;;5122324;28;20892;-60
2022/03/08 11:09:10;;;;;;;8.83;5.37;;;11.20;99.90;;;;;;5114369;28;20457;-60
2022/03/08 11:11:46;;;;;;;20.53;14.57;;;11.10;99.90;;;;;;5129993;28;20462;-60
2022/03/08 11:14:16;;;;;;;10.00;6.00;;;10.90;99.90;;;;;;5132262;28;20462;-59
2022/03/08 11:16:50;;;;;;;6.70;6.10;;;11.00;99.90;;;;;;5125175;28;20909;-59
2022/03/08 11:19:26;;;;;;;5.90;5.30;;;11.10;99.90;;;;;;5130277;28;20494;-60
2022/03/08 11:21:58;;;;;;;5.40;4.90;;;11.50;99.90;;;;;;5116283;28;20508;-60
2022/03/08 11:24:30;;;;;;;5.80;5.30;;;11.50;99.90;;;;;;5132520;28;20507;-60
2022/03/08 11:26:58;;;;;;;6.87;6.17;;;11.80;99.90;;;;;;5133912;28;20459;-60
2022/03/08 11:29:30;;;;;;;7.27;6.57;;;12.00;99.90;;;;;;5132765;28;20454;-54
2022/03/08 11:32:15;;;;;;;6.27;5.67;;;11.80;99.90;;;;;;5120258;28;20759;-57
2022/03/08 11:34:51;;;;;;;5.43;5.03;;;11.70;99.90;;;;;;5099873;28;20905;-59
2022/03/08 11:37:35;;;;;;;6.97;5.80;;;11.80;99.90;;;;;;5100883;28;20448;-55
2022/03/08 11:40:07;;;;;;;6.13;5.53;;;11.70;99.90;;;;;;5110590;28;20541;-58
2022/03/08 11:42:37;;;;;;;6.33;5.73;;;11.40;99.90;;;;;;5108063;28;20460;-59
2022/03/08 11:45:11;;;;;;;7.30;6.43;;;11.70;99.90;;;;;;5105249;28;20461;-60
2022/03/08 11:47:41;;;;;;;6.90;5.97;;;11.90;99.90;;;;;;5110371;28;20467;-55
2022/03/08 11:50:19;;;;;;;5.70;5.20;;;11.90;99.90;;;;;;5112409;28;20453;-55
2022/03/08 11:53:07;;;;;;;6.33;5.73;;;12.10;99.90;;;;;;5107679;28;20821;-55
2022/03/08 11:55:56;;;;;;;7.00;6.37;;;12.30;99.90;;;;;;5102710;28;20945;-58
2022/03/08 11:58:42;;;;;;;5.70;5.17;;;12.50;99.90;;;;;;5106453;28;20465;-60
2022/03/08 12:01:09;;;;;;;6.50;5.90;;;12.10;99.90;;;;;;5098628;28;20932;-54
2022/03/08 12:03:42;;;;;;;6.73;6.03;;;11.90;99.90;;;;;;5099964;28;20731;-60
2022/03/08 12:06:31;;;;;;;8.07;6.30;;;12.20;99.90;;;;;;5103442;28;20459;-60
2022/03/08 12:09:18;;;;;;;6.80;5.50;;;12.40;99.90;;;;;;5104644;28;20453;-56
2022/03/08 12:11:52;;;;;;;6.40;5.60;;;12.20;99.90;;;;;;5106377;28;20465;-56
2022/03/08 12:14:28;;;;;;;7.67;6.30;;;12.40;99.90;;;;;;5106069;28;20528;-56
2022/03/08 12:17:08;;;;;;;6.67;5.80;;;12.80;99.90;;;;;;5108142;28;20505;-61
2022/03/08 12:19:40;;;;;;;6.83;6.17;;;13.00;99.90;;;;;;5108362;28;20485;-60
2022/03/08 12:22:12;;;;;;;9.40;6.37;;;13.30;99.90;;;;;;5106237;28;20460;-60
2022/03/08 12:24:47;;;;;;;7.10;6.40;;;13.10;99.90;;;;;;5107223;28;20524;-60
2022/03/08 12:27:19;;;;;;;6.43;5.80;;;13.00;99.90;;;;;;5107404;28;20466;-60
2022/03/08 12:29:58;;;;;;;7.17;6.20;;;13.10;99.90;;;;;;5104948;28;20452;-56
2022/03/08 12:32:32;;;;;;;6.10;5.60;;;12.90;99.90;;;;;;5107505;28;20455;-59
2022/03/08 12:35:06;;;;;;;7.43;6.73;;;12.80;99.90;;;;;;5107878;28;20517;-58
2022/03/08 12:37:51;;;;;;;5.83;5.13;;;13.10;99.90;;;;;;5108117;28;20467;-56
2022/03/08 12:40:31;;;;;;;7.00;6.40;;;13.00;99.90;;;;;;5103854;28;20495;-60
2022/03/08 12:43:00;;;;;;;6.77;6.07;;;12.90;99.90;;;;;;5102966;28;20486;-59
2022/03/08 12:45:29;;;;;;;6.17;5.40;;;13.50;99.90;;;;;;5105326;28;20461;-58
2022/03/08 12:47:59;;;;;;;10.23;6.57;;;13.60;99.90;;;;;;5107731;28;20474;-59
2022/03/08 12:50:33;;;;;;;6.13;5.60;;;13.30;99.90;;;;;;5104372;28;20870;-60
2022/03/08 12:53:03;;;;;;;5.40;4.90;;;13.30;99.90;;;;;;5106283;28;20468;-58
2022/03/08 12:55:37;;;;;;;6.10;5.60;;;13.70;99.90;;;;;;5104912;28;20456;-60
2022/03/08 12:58:07;;;;;;;6.43;5.73;;;13.70;99.90;;;;;;5107130;28;20517;-58
2022/03/08 13:00:41;;;;;;;7.00;6.10;;;13.60;99.90;;;;;;5101565;28;20486;-59
2022/03/08 13:03:12;;;;;;;7.20;6.60;;;13.60;99.90;;;;;;5101641;28;20492;-55
2022/03/08 13:05:42;;;;;;;8.07;7.27;;;13.60;99.90;;;;;;5105761;28;20464;-59
2022/03/08 13:08:10;;;;;;;6.00;5.50;;;13.80;99.90;;;;;;5105191;28;20455;-56
2022/03/08 13:10:43;;;;;;;6.23;5.73;;;14.10;99.90;;;;;;5105015;28;20466;-57
2022/03/08 13:13:12;;;;;;;6.80;6.20;;;14.10;99.90;;;;;;5104743;28;20513;-59
2022/03/08 13:15:39;;;;;;;8.00;6.50;;;14.20;99.90;;;;;;5105649;28;20484;-58